createdAt,value
2018-05-25T00:00:02.006Z,4.33
2018-05-25T00:02:31.091Z,4.10
2018-05-25T00:05:00.178Z,4.03
2018-05-25T00:07:28.478Z,3.70
2018-05-25T00:09:56.784Z,4.23
2018-05-25T00:12:25.104Z,4.40
2018-05-25T00:14:53.416Z,4.10
2018-05-25T00:17:21.743Z,3.77
2018-05-25T00:19:50.033Z,3.90
2018-05-25T00:22:19.117Z,3.57
2018-05-25T00:24:47.457Z,3.70
2018-05-25T00:27:16.492Z,4.10
2018-05-25T00:29:44.788Z,4.17
2018-05-25T00:32:13.844Z,3.63
2018-05-25T00:34:42.137Z,4.03
2018-05-25T00:37:10.727Z,3.93
2018-05-25T00:39:39.308Z,4.40
2018-05-25T00:42:07.613Z,3.90
2018-05-25T00:44:35.944Z,4.00
2018-05-25T00:47:04.286Z,3.97
2018-05-25T00:49:33.340Z,4.20
2018-05-25T00:52:02.427Z,4.23
2018-05-25T00:54:30.734Z,3.60
2018-05-25T00:56:59.016Z,4.10
2018-05-25T00:59:27.339Z,3.60
2018-05-25T01:01:55.630Z,4.07
2018-05-25T01:04:23.946Z,4.40
2018-05-25T01:06:52.247Z,3.87
2018-05-25T01:09:20.573Z,3.90
2018-05-25T01:11:49.648Z,3.87
2018-05-25T01:14:17.944Z,3.87
2018-05-25T01:16:46.263Z,3.60
2018-05-25T01:19:14.940Z,3.70
2018-05-25T01:21:43.245Z,3.53
2018-05-25T01:24:11.539Z,3.80
2018-05-25T01:26:39.836Z,3.80
2018-05-25T01:29:08.926Z,3.77
2018-05-25T01:31:38.029Z,3.87
2018-05-25T01:34:07.120Z,3.80
2018-05-25T01:36:36.171Z,3.93
2018-05-25T01:39:05.974Z,3.53
2018-05-25T01:41:34.274Z,3.57
2018-05-25T01:44:02.568Z,3.20
2018-05-25T01:46:31.641Z,3.73
2018-05-25T01:48:59.961Z,3.63
2018-05-25T01:51:28.258Z,3.70
2018-05-25T01:53:56.581Z,3.73
2018-05-25T01:56:24.892Z,3.70
2018-05-25T01:58:53.220Z,3.60
2018-05-25T02:01:22.234Z,4.03
2018-05-25T02:03:51.324Z,4.07
2018-05-25T02:06:20.120Z,3.77
2018-05-25T02:08:49.187Z,3.90
2018-05-25T02:11:17.490Z,3.47
2018-05-25T02:13:46.558Z,3.60
2018-05-25T02:16:14.862Z,3.80
2018-05-25T02:18:43.995Z,3.63
2018-05-25T02:21:12.808Z,3.70
2018-05-25T02:23:41.129Z,4.40
2018-05-25T02:26:10.445Z,5.33
2018-05-25T02:28:38.869Z,4.63
2018-05-25T02:31:07.178Z,4.30
2018-05-25T02:33:36.256Z,3.90
2018-05-25T02:36:04.557Z,4.80
2018-05-25T02:38:33.631Z,3.90
2018-05-25T02:41:01.934Z,4.10
2018-05-25T02:43:30.227Z,4.03
2018-05-25T02:45:58.558Z,4.43
2018-05-25T02:48:26.854Z,4.33
2018-05-25T02:50:55.953Z,4.33
2018-05-25T02:53:24.277Z,5.17
2018-05-25T02:55:52.579Z,4.63
2018-05-25T02:58:20.973Z,4.77
2018-05-25T03:00:50.055Z,4.63
2018-05-25T03:03:18.356Z,4.47
2018-05-25T03:05:47.435Z,4.57
2018-05-25T03:08:16.492Z,4.50
2018-05-25T03:10:44.828Z,4.33
2018-05-25T03:13:13.904Z,4.60
2018-05-25T03:15:42.993Z,4.90
2018-05-25T03:18:12.124Z,4.60
2018-05-25T03:20:40.447Z,5.40
2018-05-25T03:23:08.749Z,5.20
2018-05-25T03:25:37.837Z,5.03
2018-05-25T03:28:06.920Z,5.23
2018-05-25T03:30:35.232Z,4.73
2018-05-25T03:33:03.528Z,5.00
2018-05-25T03:35:31.824Z,5.10
2018-05-25T03:38:00.129Z,4.60
2018-05-25T03:40:29.452Z,5.73
2018-05-25T03:42:57.757Z,5.20
2018-05-25T03:45:26.073Z,5.10
2018-05-25T03:47:54.379Z,4.47
2018-05-25T03:50:23.465Z,4.90
2018-05-25T03:52:52.518Z,4.70
2018-05-25T03:55:20.901Z,4.60
2018-05-25T03:57:49.189Z,4.90
2018-05-25T04:00:35.172Z,5.10
2018-05-25T04:03:04.346Z,5.17
2018-05-25T04:05:32.656Z,4.80
2018-05-25T04:08:00.970Z,4.63
2018-05-25T04:10:29.788Z,4.53
2018-05-25T04:12:58.075Z,4.43
2018-05-25T04:15:26.392Z,4.50
2018-05-25T04:17:55.456Z,4.40
2018-05-25T04:20:23.843Z,4.50
2018-05-25T04:22:52.863Z,4.63
2018-05-25T04:25:22.239Z,4.87
2018-05-25T04:27:50.539Z,4.67
2018-05-25T04:30:19.619Z,4.43
2018-05-25T04:32:48.683Z,4.50
2018-05-25T04:35:17.849Z,4.43
2018-05-25T04:37:46.167Z,4.60
2018-05-25T04:40:14.477Z,4.40
2018-05-25T04:42:43.602Z,4.20
2018-05-25T04:45:11.896Z,4.30
2018-05-25T04:47:40.188Z,5.77
2018-05-25T04:50:08.499Z,5.23
2018-05-25T04:52:37.550Z,4.47
2018-05-25T04:55:05.868Z,4.70
2018-05-25T04:57:34.938Z,4.40
2018-05-25T05:00:03.231Z,4.03
2018-05-25T05:02:32.311Z,4.13
2018-05-25T05:05:00.661Z,4.63
2018-05-25T05:07:28.946Z,4.30
2018-05-25T05:09:57.270Z,4.40
2018-05-25T05:12:25.582Z,4.03
2018-05-25T05:14:53.932Z,4.70
2018-05-25T05:17:23.002Z,4.33
2018-05-25T05:19:52.078Z,4.17
2018-05-25T05:22:20.642Z,4.07
2018-05-25T05:24:48.950Z,4.43
2018-05-25T05:27:18.016Z,3.90
2018-05-25T05:29:46.323Z,4.43
2018-05-25T05:32:15.563Z,3.93
2018-05-25T05:34:43.861Z,4.63
2018-05-25T05:37:12.169Z,4.33
2018-05-25T05:39:41.381Z,4.10
2018-05-25T05:42:10.456Z,5.00
2018-05-25T05:44:39.537Z,4.17
2018-05-25T05:47:07.852Z,4.50
2018-05-25T05:49:36.154Z,3.93
2018-05-25T05:52:04.484Z,3.80
2018-05-25T05:54:33.549Z,3.93
2018-05-25T05:57:01.842Z,3.73
2018-05-25T05:59:30.164Z,4.33
2018-05-25T06:01:58.455Z,4.57
2018-05-25T06:04:26.807Z,4.20
2018-05-25T06:06:55.095Z,4.63
2018-05-25T06:09:23.847Z,3.90
2018-05-25T06:11:52.919Z,3.63
2018-05-25T06:14:21.479Z,4.33
2018-05-25T06:16:49.797Z,4.13
2018-05-25T06:19:19.276Z,4.53
2018-05-25T06:21:47.589Z,4.33
2018-05-25T06:24:15.930Z,3.70
2018-05-25T06:26:44.254Z,4.07
2018-05-25T06:29:12.557Z,4.20
2018-05-25T06:31:40.878Z,4.27
2018-05-25T06:34:09.946Z,4.27
2018-05-25T06:36:39.762Z,3.97
2018-05-25T06:39:08.084Z,3.80
2018-05-25T06:41:36.400Z,3.90
2018-05-25T06:44:04.703Z,3.60
2018-05-25T06:46:33.028Z,4.20
2018-05-25T06:49:01.334Z,4.00
2018-05-25T06:51:29.669Z,4.13
2018-05-25T06:53:57.986Z,3.83
2018-05-25T06:56:26.786Z,4.00
2018-05-25T06:58:55.084Z,3.73
2018-05-25T07:01:24.309Z,3.53
2018-05-25T07:03:52.621Z,3.90
2018-05-25T07:06:20.926Z,4.03
2018-05-25T07:08:49.258Z,3.63
2018-05-25T07:11:17.570Z,3.87
2018-05-25T07:13:45.912Z,4.00
2018-05-25T07:16:14.234Z,4.17
2018-05-25T07:18:42.686Z,3.70
2018-05-25T07:21:11.017Z,3.50
2018-05-25T07:23:39.460Z,4.13
2018-05-25T07:26:07.768Z,4.27
2018-05-25T07:28:36.858Z,3.63
2018-05-25T07:31:05.920Z,3.90
2018-05-25T07:33:34.230Z,3.50
2018-05-25T07:36:03.293Z,3.17
2018-05-25T07:38:31.633Z,4.00
2018-05-25T07:40:59.949Z,3.87
2018-05-25T07:43:28.732Z,3.97
2018-05-25T07:45:57.021Z,3.70
2018-05-25T07:48:25.325Z,3.70
2018-05-25T07:50:53.637Z,3.87
2018-05-25T07:53:21.956Z,3.40
2018-05-25T07:55:51.032Z,3.87
2018-05-25T07:58:20.146Z,3.37
2018-05-25T08:00:49.230Z,4.10
2018-05-25T08:03:17.542Z,3.97
2018-05-25T08:05:45.848Z,3.00
2018-05-25T08:08:14.173Z,3.73
2018-05-25T08:10:43.377Z,3.20
2018-05-25T08:13:12.442Z,3.57
2018-05-25T08:15:40.998Z,3.67
2018-05-25T08:18:09.321Z,3.57
2018-05-25T08:20:38.385Z,3.30
2018-05-25T08:23:06.709Z,3.53
2018-05-25T08:25:35.769Z,3.63
2018-05-25T08:28:04.091Z,3.90
2018-05-25T08:30:32.397Z,3.40
2018-05-25T08:33:00.698Z,3.90
2018-05-25T08:35:29.417Z,3.50
2018-05-25T08:37:58.513Z,3.70
2018-05-25T08:40:26.819Z,2.90
2018-05-25T08:42:55.128Z,3.90
2018-05-25T08:45:23.423Z,3.70
2018-05-25T08:47:51.751Z,3.47
2018-05-25T08:50:20.057Z,3.80
2018-05-25T08:52:48.374Z,3.53
2018-05-25T08:55:16.681Z,3.80
2018-05-25T08:57:44.995Z,3.20
2018-05-25T09:00:14.055Z,3.07
2018-05-25T09:02:43.129Z,3.60
2018-05-25T09:05:11.434Z,3.17
2018-05-25T09:07:40.600Z,2.90
2018-05-25T09:10:08.952Z,3.00
2018-05-25T09:12:38.341Z,3.10
2018-05-25T09:15:07.413Z,3.30
2018-05-25T09:17:35.715Z,2.80
2018-05-25T09:20:04.779Z,3.00
2018-05-25T09:22:33.688Z,2.70
2018-05-25T09:25:02.008Z,2.77
2018-05-25T09:27:30.324Z,2.70
2018-05-25T09:29:58.630Z,3.00
2018-05-25T09:32:27.701Z,2.63
2018-05-25T09:34:56.037Z,2.93
2018-05-25T09:37:24.492Z,3.03
2018-05-25T09:39:52.819Z,3.20
2018-05-25T09:42:21.110Z,3.10
2018-05-25T09:44:49.413Z,3.23
2018-05-25T09:47:18.491Z,2.90
2018-05-25T09:49:46.801Z,2.83
2018-05-25T09:52:15.333Z,2.60
2018-05-25T09:54:43.649Z,2.43
2018-05-25T09:57:12.719Z,2.50
2018-05-25T09:59:41.030Z,2.50
2018-05-25T10:02:09.352Z,2.73
2018-05-25T10:04:37.650Z,2.40
2018-05-25T10:07:06.740Z,2.70
2018-05-25T10:09:35.325Z,2.43
2018-05-25T10:12:03.657Z,2.70
2018-05-25T10:14:32.913Z,3.07
2018-05-25T10:17:01.989Z,2.93
2018-05-25T10:19:30.316Z,3.20
2018-05-25T10:21:58.618Z,2.47
2018-05-25T10:24:26.920Z,2.80
2018-05-25T10:26:55.215Z,2.37
2018-05-25T10:29:24.296Z,2.80
2018-05-25T10:31:52.651Z,2.70
2018-05-25T10:34:21.217Z,3.10
2018-05-25T10:36:49.525Z,2.20
2018-05-25T10:39:17.836Z,2.53
2018-05-25T10:41:46.125Z,3.10
2018-05-25T10:44:14.456Z,2.63
2018-05-25T10:46:42.827Z,2.50
2018-05-25T10:49:11.946Z,2.40
2018-05-25T10:51:41.713Z,2.83
2018-05-25T10:54:10.053Z,2.87
2018-05-25T10:56:38.793Z,2.70
2018-05-25T10:59:08.068Z,2.27
2018-05-25T11:01:36.533Z,2.20
2018-05-25T11:04:04.850Z,2.30
2018-05-25T11:06:33.152Z,2.70
2018-05-25T11:09:02.240Z,2.47
2018-05-25T11:11:31.317Z,2.50
2018-05-25T11:13:59.640Z,2.30
2018-05-25T11:16:27.972Z,2.50
2018-05-25T11:18:56.295Z,2.67
2018-05-25T11:21:25.033Z,2.27
2018-05-25T11:23:53.673Z,2.53
2018-05-25T11:26:21.998Z,2.20
2018-05-25T11:28:50.350Z,3.17
2018-05-25T11:31:18.834Z,2.90
2018-05-25T11:33:47.211Z,2.70
2018-05-25T11:36:15.498Z,2.60
2018-05-25T11:38:43.835Z,3.10
2018-05-25T11:41:12.137Z,2.67
2018-05-25T11:43:41.207Z,2.80
2018-05-25T11:46:09.501Z,2.40
2018-05-25T11:48:38.380Z,2.47
2018-05-25T11:51:06.699Z,2.40
2018-05-25T11:53:35.009Z,2.43
2018-05-25T11:56:03.312Z,2.17
2018-05-25T11:58:31.650Z,2.30
2018-05-25T12:01:00.739Z,2.30
2018-05-25T12:03:29.043Z,2.77
2018-05-25T12:05:57.430Z,2.37
2018-05-25T12:08:25.764Z,2.77
2018-05-25T12:10:54.859Z,3.03
2018-05-25T12:13:24.068Z,2.60
2018-05-25T12:15:53.170Z,2.50
2018-05-25T12:18:21.475Z,2.50
2018-05-25T12:20:49.844Z,2.83
2018-05-25T12:23:18.140Z,2.60
2018-05-25T12:25:46.458Z,2.53
2018-05-25T12:28:15.531Z,2.80
2018-05-25T12:30:44.640Z,2.80
2018-05-25T12:33:13.707Z,2.60
2018-05-25T12:35:42.999Z,2.60
2018-05-25T12:38:11.285Z,2.43
2018-05-25T12:40:39.607Z,2.60
2018-05-25T12:43:07.930Z,2.90
2018-05-25T12:45:36.351Z,2.40
2018-05-25T12:48:05.452Z,2.40
2018-05-25T12:50:33.757Z,2.60
2018-05-25T12:53:02.078Z,2.27
2018-05-25T12:55:30.390Z,2.40
2018-05-25T12:57:58.684Z,2.30
2018-05-25T13:00:27.001Z,2.47
2018-05-25T13:02:55.306Z,2.50
2018-05-25T13:05:23.611Z,2.50
2018-05-25T13:07:51.915Z,2.90
2018-05-25T13:10:20.967Z,2.60
2018-05-25T13:12:49.278Z,2.43
2018-05-25T13:15:17.602Z,2.57
2018-05-25T13:17:46.727Z,2.90
2018-05-25T13:20:15.078Z,2.93
2018-05-25T13:22:43.379Z,2.70
2018-05-25T13:25:11.693Z,2.83
2018-05-25T13:27:40.740Z,2.50
2018-05-25T13:30:09.046Z,2.67
2018-05-25T13:32:37.398Z,2.67
2018-05-25T13:35:05.744Z,2.47
2018-05-25T13:37:34.883Z,2.50
2018-05-25T13:40:03.225Z,2.63
2018-05-25T13:42:32.360Z,2.60
2018-05-25T13:45:00.696Z,2.33
2018-05-25T13:47:29.751Z,2.17
2018-05-25T13:49:58.057Z,2.40
2018-05-25T13:52:26.411Z,2.07
2018-05-25T13:54:54.751Z,2.33
2018-05-25T13:57:23.076Z,2.60
2018-05-25T13:59:51.421Z,2.50
2018-05-25T14:02:19.753Z,2.80
2018-05-25T14:04:49.922Z,2.53
2018-05-25T14:07:18.484Z,2.70
2018-05-25T14:09:47.693Z,2.50
2018-05-25T14:12:16.010Z,2.80
2018-05-25T14:14:44.319Z,2.67
2018-05-25T14:17:12.614Z,2.70
2018-05-25T14:19:40.927Z,2.63
2018-05-25T14:22:09.218Z,2.83
2018-05-25T14:24:37.680Z,2.70
2018-05-25T14:27:05.995Z,2.37
2018-05-25T14:29:35.081Z,2.30
2018-05-25T14:32:04.161Z,2.90
2018-05-25T14:34:32.458Z,2.53
2018-05-25T14:37:01.515Z,2.47
2018-05-25T14:39:29.830Z,2.20
2018-05-25T14:41:58.912Z,2.60
2018-05-25T14:44:27.217Z,2.77
2018-05-25T14:46:55.558Z,2.33
2018-05-25T14:49:24.667Z,2.77
2018-05-25T14:51:53.007Z,2.23
2018-05-25T14:54:21.353Z,2.70
2018-05-25T14:56:50.169Z,2.30
2018-05-25T14:59:19.223Z,2.67
2018-05-25T15:01:47.525Z,2.53
2018-05-25T15:04:15.830Z,2.90
2018-05-25T15:06:44.147Z,2.60
2018-05-25T15:09:12.502Z,2.80
2018-05-25T15:11:41.613Z,2.33
2018-05-25T15:14:09.923Z,2.53
2018-05-25T15:16:38.236Z,2.80
2018-05-25T15:19:06.569Z,2.80
2018-05-25T15:21:34.875Z,2.67
2018-05-25T15:24:03.168Z,3.23
2018-05-25T15:26:31.483Z,2.40
2018-05-25T15:28:59.794Z,2.83
2018-05-25T15:31:28.565Z,2.60
2018-05-25T15:33:56.862Z,2.70
2018-05-25T15:36:25.197Z,2.40
2018-05-25T15:38:54.123Z,2.40
2018-05-25T15:41:22.690Z,2.73
2018-05-25T15:43:51.148Z,2.90
2018-05-25T15:46:19.522Z,3.20
2018-05-25T15:48:47.842Z,2.80
2018-05-25T15:51:16.215Z,3.00
2018-05-25T15:53:44.507Z,2.50
2018-05-25T15:56:12.816Z,2.70
2018-05-25T15:58:41.884Z,2.40
2018-05-25T16:01:10.199Z,2.70
2018-05-25T16:03:39.403Z,2.50
2018-05-25T16:06:07.720Z,2.67
2018-05-25T16:08:36.160Z,2.87
2018-05-25T16:11:05.834Z,2.63
2018-05-25T16:13:39.688Z,2.90
2018-05-25T16:16:14.089Z,2.63
2018-05-25T16:18:44.872Z,2.50
2018-05-25T16:21:18.124Z,2.90
2018-05-25T16:23:53.271Z,2.67
2018-05-25T16:26:27.400Z,3.10
2018-05-25T16:29:02.159Z,2.70
2018-05-25T16:31:35.678Z,2.83
2018-05-25T16:34:06.274Z,3.07
2018-05-25T16:36:34.722Z,3.23
2018-05-25T16:39:03.126Z,3.00
2018-05-25T16:41:31.593Z,2.47
2018-05-25T16:43:59.902Z,3.50
2018-05-25T16:46:29.149Z,3.13
2018-05-25T16:48:57.469Z,3.23
2018-05-25T16:51:26.537Z,3.10
2018-05-25T16:53:55.055Z,3.00
2018-05-25T16:56:24.170Z,3.03
2018-05-25T16:58:52.549Z,3.20
2018-05-25T17:01:21.737Z,2.83
2018-05-25T17:03:50.033Z,3.20
2018-05-25T17:06:18.352Z,3.10
2018-05-25T17:08:46.675Z,2.70
2018-05-25T17:11:14.989Z,3.60
2018-05-25T17:13:48.347Z,3.20
2018-05-25T17:16:22.860Z,3.13
2018-05-25T17:18:54.756Z,3.43
2018-05-25T17:21:29.391Z,3.20
2018-05-25T17:24:03.984Z,3.27
2018-05-25T17:26:38.314Z,3.77
2018-05-25T17:29:12.512Z,3.50
2018-05-25T17:31:48.519Z,3.33
2018-05-25T17:34:22.711Z,3.13
2018-05-25T17:36:58.007Z,4.50
2018-05-25T17:39:27.398Z,3.67
2018-05-25T17:41:56.460Z,3.43
2018-05-25T17:44:24.760Z,3.60
2018-05-25T17:46:53.108Z,3.40
2018-05-25T17:49:21.959Z,3.50
2018-05-25T17:51:50.273Z,3.63
2018-05-25T17:54:18.606Z,3.60
2018-05-25T17:56:46.911Z,3.70
2018-05-25T17:59:15.230Z,3.27
2018-05-25T18:01:43.515Z,3.23
2018-05-25T18:04:13.071Z,3.27
2018-05-25T18:06:45.944Z,3.40
2018-05-25T18:09:14.335Z,3.10
2018-05-25T18:11:42.700Z,3.50
2018-05-25T18:14:11.080Z,3.63
2018-05-25T18:16:39.410Z,4.07
2018-05-25T18:19:08.683Z,3.50
2018-05-25T18:21:37.039Z,3.93
2018-05-25T18:24:05.477Z,4.47
2018-05-25T18:26:34.595Z,3.80
2018-05-25T18:29:07.961Z,4.47
2018-05-25T18:31:36.548Z,4.17
2018-05-25T18:34:05.535Z,3.87
2018-05-25T18:36:34.601Z,3.73
2018-05-25T18:39:03.366Z,4.03
2018-05-25T18:41:31.783Z,3.53
2018-05-25T18:44:01.722Z,4.00
2018-05-25T18:46:30.023Z,4.03
2018-05-25T18:48:58.343Z,4.47
2018-05-25T18:51:27.076Z,4.47
2018-05-25T18:54:13.089Z,4.60
2018-05-25T18:56:41.410Z,3.90
2018-05-25T18:59:10.600Z,4.00
2018-05-25T19:01:38.905Z,4.07
2018-05-25T19:04:10.319Z,4.17
2018-05-25T19:06:40.477Z,4.17
2018-05-25T19:09:08.808Z,4.07
2018-05-25T19:11:37.975Z,3.77
2018-05-25T19:14:06.365Z,4.40
2018-05-25T19:16:35.498Z,4.50
2018-05-25T19:19:04.477Z,3.87
2018-05-25T19:21:32.829Z,4.70
2018-05-25T19:24:01.195Z,4.93
2018-05-25T19:26:29.523Z,4.70
2018-05-25T19:28:58.532Z,5.27
2018-05-25T19:31:27.200Z,4.50
2018-05-25T19:33:56.307Z,5.13
2018-05-25T19:36:25.404Z,4.43
2018-05-25T19:38:53.748Z,4.27
2018-05-25T19:41:22.140Z,4.53
2018-05-25T19:43:50.496Z,4.40
2018-05-25T19:46:18.846Z,4.00
2018-05-25T19:48:47.250Z,3.93
2018-05-25T19:51:19.046Z,4.20
2018-05-25T19:53:47.486Z,3.77
2018-05-25T19:56:15.888Z,4.20
2018-05-25T19:58:44.234Z,3.80
2018-05-25T20:01:13.023Z,3.87
2018-05-25T20:03:42.311Z,4.47
2018-05-25T20:06:11.386Z,4.47
2018-05-25T20:08:40.612Z,4.30
2018-05-25T20:11:08.985Z,4.17
2018-05-25T20:13:37.424Z,4.97
2018-05-25T20:16:05.836Z,3.97
2018-05-25T20:18:34.290Z,4.80
2018-05-25T20:21:02.595Z,3.83
2018-05-25T20:23:30.925Z,4.50
2018-05-25T20:25:59.316Z,4.20
2018-05-25T20:28:27.783Z,4.43
2018-05-25T20:30:56.145Z,4.03
2018-05-25T20:33:24.449Z,3.93
2018-05-25T20:35:52.772Z,4.20
2018-05-25T20:38:21.063Z,4.03
2018-05-25T20:40:49.397Z,4.67
2018-05-25T20:43:17.734Z,4.23
2018-05-25T20:45:46.815Z,4.10
2018-05-25T20:48:15.262Z,3.93
2018-05-25T20:50:44.452Z,4.30
2018-05-25T20:53:13.245Z,4.13
2018-05-25T20:55:42.901Z,4.23
2018-05-25T20:58:14.584Z,4.07
2018-05-25T21:00:43.163Z,3.67
2018-05-25T21:03:11.464Z,4.20
2018-05-25T21:05:39.786Z,4.43
2018-05-25T21:08:08.099Z,4.10
2018-05-25T21:10:36.417Z,4.33
2018-05-25T21:13:04.718Z,4.63
2018-05-25T21:15:33.809Z,4.23
2018-05-25T21:18:02.909Z,4.43
2018-05-25T21:20:32.453Z,4.73
2018-05-25T21:23:00.748Z,4.33
2018-05-25T21:25:29.071Z,4.30
2018-05-25T21:27:58.132Z,5.73
2018-05-25T21:30:26.465Z,5.00
2018-05-25T21:32:54.777Z,5.57
2018-05-25T21:35:23.081Z,4.70
2018-05-25T21:37:51.394Z,5.13
2018-05-25T21:40:19.715Z,4.93
2018-05-25T21:42:48.010Z,5.50
2018-05-25T21:45:16.674Z,5.33
2018-05-25T21:47:44.997Z,4.97
2018-05-25T21:50:13.357Z,4.60
2018-05-25T21:52:41.639Z,6.87
2018-05-25T21:55:10.703Z,7.23
2018-05-25T21:57:39.874Z,6.87
2018-05-25T22:00:08.172Z,5.37
2018-05-25T22:02:36.471Z,5.30
2018-05-25T22:05:05.631Z,5.07
2018-05-25T22:07:33.947Z,4.07
2018-05-25T22:10:03.059Z,7.53
2018-05-25T22:12:31.376Z,7.20
2018-05-25T22:14:59.688Z,6.60
2018-05-25T22:17:28.021Z,5.80
2018-05-25T22:19:56.330Z,5.97
2018-05-25T22:22:24.930Z,5.23
2018-05-25T22:24:54.057Z,4.80
2018-05-25T22:27:22.414Z,4.27
2018-05-25T22:29:51.514Z,4.23
2018-05-25T22:32:20.391Z,4.17
2018-05-25T22:34:49.499Z,3.73
2018-05-25T22:37:18.821Z,3.77
2018-05-25T22:39:47.159Z,3.53
2018-05-25T22:42:33.854Z,4.90
2018-05-25T22:45:19.978Z,4.87
2018-05-25T22:48:06.056Z,3.90
2018-05-25T22:50:52.832Z,3.97
2018-05-25T22:53:26.468Z,3.90
2018-05-25T22:55:55.570Z,4.43
2018-05-25T22:58:25.377Z,5.00
2018-05-25T23:00:54.474Z,4.90
2018-05-25T23:03:23.580Z,5.73
2018-05-25T23:05:51.944Z,5.67
2018-05-25T23:08:20.717Z,5.80
2018-05-25T23:10:49.790Z,5.33
2018-05-25T23:13:18.121Z,5.40
2018-05-25T23:15:46.428Z,5.43
2018-05-25T23:18:14.841Z,6.00
2018-05-25T23:20:43.154Z,6.20
2018-05-25T23:23:11.468Z,6.67
2018-05-25T23:25:39.804Z,6.97
2018-05-25T23:28:08.116Z,6.30
2018-05-25T23:30:36.409Z,5.87
2018-05-25T23:33:04.737Z,6.40
2018-05-25T23:35:33.044Z,6.30
2018-05-25T23:38:01.405Z,6.20
2018-05-25T23:40:29.699Z,5.63
2018-05-25T23:42:58.025Z,6.83
2018-05-25T23:45:27.095Z,8.07
2018-05-25T23:47:55.409Z,6.23
2018-05-25T23:50:24.117Z,7.80
2018-05-25T23:52:52.445Z,7.93
2018-05-25T23:55:21.551Z,7.50
2018-05-25T23:57:50.631Z,6.53
